Time;durP1;ratioP1;P1;durP2;ratioP2;P2;SDS_P1;SDS_P2;PMS_P1;PMS_P2;Temp;Humidity;BMP_temperature;BMP_pressure;BME280_temperature;BME280_humidity;BME280_pressure;Samples;Min_cycle;Max_cycle;Signal;HPM_P1;HPM_P2
2022/04/05 00:00:05;;;;;;;5.53;3.90;;;11.60;99.90;;;;;;1047809;28;20015;-65
2022/04/05 00:00:36;;;;;;;4.55;3.40;;;11.60;99.90;;;;;;1047883;28;20478;-67
2022/04/05 00:01:07;;;;;;;4.63;3.60;;;11.60;99.90;;;;;;1050355;28;20028;-65
2022/04/05 00:01:37;;;;;;;4.90;3.97;;;11.60;99.90;;;;;;1047343;28;20475;-65
2022/04/05 00:02:08;;;;;;;5.07;3.90;;;11.60;99.90;;;;;;1047007;28;20013;-66
2022/04/05 00:02:38;;;;;;;5.47;3.37;;;11.60;99.90;;;;;;1047300;28;20013;-65
2022/04/05 00:03:09;;;;;;;5.50;3.60;;;11.60;99.90;;;;;;1047580;28;20035;-65
2022/04/05 00:03:39;;;;;;;5.47;4.03;;;11.60;99.90;;;;;;1051759;28;20019;-65
2022/04/05 00:04:10;;;;;;;5.10;3.60;;;11.50;99.90;;;;;;1051644;28;20578;-65
2022/04/05 00:04:41;;;;;;;3.83;3.40;;;11.50;99.90;;;;;;1051015;28;20012;-67
2022/04/05 00:05:12;;;;;;;4.93;3.50;;;11.50;99.90;;;;;;1051067;28;20020;-66
2022/04/05 00:05:42;;;;;;;6.27;4.10;;;11.50;99.90;;;;;;1051661;28;20008;-65
2022/04/05 00:06:13;;;;;;;4.47;3.40;;;11.50;99.90;;;;;;1051334;28;20087;-67
2022/04/05 00:06:43;;;;;;;3.70;3.17;;;11.50;99.90;;;;;;1056174;28;20091;-66
2022/04/05 00:07:14;;;;;;;4.80;3.73;;;11.50;99.90;;;;;;1055905;28;20015;-66
2022/04/05 00:07:44;;;;;;;4.23;3.30;;;11.50;99.90;;;;;;1056153;28;20019;-65
2022/04/05 00:08:16;;;;;;;4.83;3.30;;;11.50;99.90;;;;;;1051465;28;20418;-65
2022/04/05 00:08:47;;;;;;;4.68;3.70;;;11.50;99.90;;;;;;1051654;28;20525;-65
2022/04/05 00:09:17;;;;;;;5.03;3.43;;;11.50;99.90;;;;;;1046526;28;20493;-66
2022/04/05 00:09:48;;;;;;;3.83;2.80;;;11.50;99.90;;;;;;1047590;28;20247;-66
2022/04/05 00:10:18;;;;;;;5.63;3.80;;;11.50;99.90;;;;;;1051331;28;20016;-66
2022/04/05 00:10:49;;;;;;;3.87;2.77;;;11.50;99.90;;;;;;1051819;28;20019;-65
2022/04/05 00:11:19;;;;;;;4.10;2.93;;;11.40;99.90;;;;;;1055905;28;20012;-66
2022/04/05 00:11:50;;;;;;;5.13;3.37;;;11.40;99.90;;;;;;1056218;28;20022;-65
2022/04/05 00:12:24;;;;;;;6.40;3.10;;;11.40;99.90;;;;;;1056051;28;20576;-65
2022/04/05 00:12:55;;;;;;;4.45;2.90;;;11.40;99.90;;;;;;1051367;28;20012;-66
2022/04/05 00:13:25;;;;;;;2.90;2.50;;;11.40;99.90;;;;;;1051477;28;20095;-65
2022/04/05 00:13:56;;;;;;;3.30;2.57;;;11.40;99.90;;;;;;1051629;28;20016;-65
2022/04/05 00:14:27;;;;;;;4.43;2.70;;;11.40;99.90;;;;;;1051560;28;20016;-66
2022/04/05 00:14:57;;;;;;;4.17;2.70;;;11.40;99.90;;;;;;1051553;28;20057;-65
2022/04/05 00:15:28;;;;;;;5.03;3.67;;;11.40;99.90;;;;;;1051556;28;20110;-66
2022/04/05 00:15:58;;;;;;;4.13;2.47;;;11.40;99.90;;;;;;1051586;28;20024;-66
2022/04/05 00:16:29;;;;;;;3.80;2.67;;;11.40;99.90;;;;;;1051552;28;20050;-66
2022/04/05 00:17:00;;;;;;;3.93;2.87;;;11.40;99.90;;;;;;1055844;28;20012;-66
2022/04/05 00:17:32;;;;;;;3.33;2.70;;;11.40;99.90;;;;;;1055952;28;20099;-68
2022/04/05 00:18:03;;;;;;;4.57;3.38;;;11.40;99.90;;;;;;1051572;28;20008;-67
2022/04/05 00:18:34;;;;;;;5.72;2.80;;;11.40;99.90;;;;;;1051515;28;20127;-67
2022/04/05 00:19:04;;;;;;;2.83;2.40;;;11.40;99.90;;;;;;1051603;28;20068;-67
2022/04/05 00:19:35;;;;;;;4.67;3.00;;;11.30;99.90;;;;;;1051733;28;20013;-67
2022/04/05 00:20:07;;;;;;;3.65;2.70;;;11.30;99.90;;;;;;1051516;28;20099;-67
2022/04/05 00:20:38;;;;;;;4.22;2.97;;;11.30;99.90;;;;;;1051544;28;20015;-66
2022/04/05 00:21:08;;;;;;;3.43;1.97;;;11.30;99.90;;;;;;1047443;28;20036;-67
2022/04/05 00:21:40;;;;;;;4.03;2.60;;;11.30;99.90;;;;;;1047553;28;20012;-67
2022/04/05 00:22:10;;;;;;;3.40;2.47;;;11.30;99.90;;;;;;1051436;28;20017;-67
2022/04/05 00:22:41;;;;;;;3.33;2.43;;;11.30;99.90;;;;;;1051859;28;20020;-67
2022/04/05 00:23:12;;;;;;;3.37;2.30;;;11.30;99.90;;;;;;1050049;28;20024;-68
2022/04/05 00:23:42;;;;;;;3.90;2.70;;;11.30;99.90;;;;;;1043589;28;20017;-66
2022/04/05 00:24:13;;;;;;;3.30;2.70;;;11.30;99.90;;;;;;1043086;28;20222;-67
2022/04/05 00:24:43;;;;;;;2.73;2.33;;;11.30;99.90;;;;;;1043606;28;20017;-67
2022/04/05 00:25:14;;;;;;;2.67;1.87;;;11.30;99.90;;;;;;1047236;28;20023;-67
2022/04/05 00:25:44;;;;;;;3.30;2.70;;;11.30;99.90;;;;;;1052027;28;20439;-65
2022/04/05 00:26:15;;;;;;;3.30;2.70;;;11.30;99.90;;;;;;1051742;28;20016;-65
2022/04/05 00:26:46;;;;;;;2.20;1.80;;;11.30;99.90;;;;;;1052043;28;20023;-68
2022/04/05 00:27:16;;;;;;;3.67;2.40;;;11.20;99.90;;;;;;1051719;28;20431;-65
2022/04/05 00:27:48;;;;;;;3.47;2.37;;;11.20;99.90;;;;;;1047468;28;20112;-65
2022/04/05 00:28:19;;;;;;;3.97;2.35;;;11.20;99.90;;;;;;1042881;28;20025;-67
2022/04/05 00:28:49;;;;;;;3.03;2.63;;;11.20;99.90;;;;;;1039244;28;20432;-65
2022/04/05 00:29:22;;;;;;;3.03;2.40;;;11.20;99.90;;;;;;1039094;28;20084;-66
2022/04/05 00:29:55;;;;;;;2.83;2.40;;;11.20;99.90;;;;;;1043795;28;20031;-66
2022/04/05 00:30:25;;;;;;;4.40;2.65;;;11.20;99.90;;;;;;1047200;28;20009;-65
2022/04/05 00:30:56;;;;;;;3.20;2.17;;;11.20;99.90;;;;;;1047465;28;20016;-65
2022/04/05 00:31:26;;;;;;;3.83;2.37;;;11.20;99.90;;;;;;1047742;28;20009;-65
2022/04/05 00:31:57;;;;;;;3.50;2.27;;;11.20;99.90;;;;;;1051904;28;20346;-66
2022/04/05 00:32:27;;;;;;;3.67;2.37;;;11.20;99.90;;;;;;1051613;28;20024;-65
2022/04/05 00:32:58;;;;;;;2.83;2.30;;;11.20;99.90;;;;;;1051937;28;20016;-66
2022/04/05 00:33:29;;;;;;;3.05;2.00;;;11.20;99.90;;;;;;1047010;28;20127;-65
2022/04/05 00:34:00;;;;;;;4.23;2.63;;;11.20;99.90;;;;;;1047650;28;20012;-66
2022/04/05 00:34:30;;;;;;;4.37;2.40;;;11.20;99.90;;;;;;1047272;28;20027;-67
2022/04/05 00:35:01;;;;;;;3.67;2.57;;;11.20;99.90;;;;;;1048833;28;20925;-65
2022/04/05 00:35:31;;;;;;;3.33;2.23;;;11.20;99.90;;;;;;1051142;28;20093;-67
2022/04/05 00:36:02;;;;;;;2.50;2.03;;;11.20;99.90;;;;;;1051815;28;20095;-67
2022/04/05 00:36:33;;;;;;;3.00;2.10;;;11.20;99.90;;;;;;1051452;28;20027;-67
2022/04/05 00:37:04;;;;;;;3.40;2.60;;;11.20;99.90;;;;;;1051932;28;20023;-67
2022/04/05 00:37:35;;;;;;;3.90;2.40;;;11.20;99.90;;;;;;1055789;28;20011;-68
2022/04/05 00:38:08;;;;;;;3.80;2.15;;;11.20;99.90;;;;;;1056310;28;20462;-66
2022/04/05 00:38:39;;;;;;;3.28;1.73;;;11.20;99.90;;;;;;1055815;28;20015;-66
2022/04/05 00:39:10;;;;;;;2.80;2.23;;;11.20;99.90;;;;;;1056356;28;20024;-67
2022/04/05 00:39:40;;;;;;;2.40;2.10;;;11.20;99.90;;;;;;1055726;28;20153;-67
2022/04/05 00:40:11;;;;;;;2.00;1.70;;;11.20;99.90;;;;;;1056108;28;20403;-66
2022/04/05 00:40:42;;;;;;;4.95;2.58;;;11.20;99.90;;;;;;1055969;28;20019;-67
2022/04/05 00:41:12;;;;;;;2.57;2.10;;;11.20;99.90;;;;;;1051511;28;20049;-67
2022/04/05 00:41:43;;;;;;;3.10;2.33;;;11.20;99.90;;;;;;1051394;28;20016;-67
2022/04/05 00:42:13;;;;;;;2.70;2.03;;;11.20;99.90;;;;;;1051472;28;20016;-67
2022/04/05 00:42:44;;;;;;;2.73;1.90;;;11.20;99.90;;;;;;1051306;28;20012;-67
2022/04/05 00:43:14;;;;;;;1.80;1.40;;;11.20;99.90;;;;;;1051439;28;20008;-67
2022/04/05 00:43:45;;;;;;;2.27;1.67;;;11.20;99.90;;;;;;1051532;28;20061;-65
2022/04/05 00:44:16;;;;;;;2.63;1.83;;;11.20;99.90;;;;;;1051365;28;20087;-67
2022/04/05 00:44:46;;;;;;;3.23;1.90;;;11.20;99.90;;;;;;1056227;28;20478;-68
2022/04/05 00:45:20;;;;;;;3.43;1.83;;;11.20;99.90;;;;;;1051244;28;20107;-67
2022/04/05 00:45:54;;;;;;;3.15;2.15;;;11.20;99.90;;;;;;1047281;28;20153;-67
2022/04/05 00:46:24;;;;;;;3.72;2.00;;;11.20;99.90;;;;;;1042837;28;20024;-67
2022/04/05 00:46:55;;;;;;;2.70;2.00;;;11.20;99.90;;;;;;1043985;28;20099;-67
2022/04/05 00:47:26;;;;;;;3.40;1.93;;;11.10;99.90;;;;;;1047579;28;20009;-67
2022/04/05 00:47:56;;;;;;;2.47;1.90;;;11.10;99.90;;;;;;1051671;28;20023;-67
2022/04/05 00:48:48;;;;;;;2.23;1.73;;;11.10;99.90;;;;;;1051626;28;20069;-67
2022/04/05 00:49:31;;;;;;;3.78;1.65;;;11.10;99.90;;;;;;1051640;28;20015;-65
2022/04/05 00:50:04;;;;;;;3.15;1.80;;;11.10;99.90;;;;;;1052028;28;20095;-65
2022/04/05 00:50:37;;;;;;;4.10;1.92;;;11.10;99.90;;;;;;1051308;28;20039;-66
2022/04/05 00:51:08;;;;;;;2.50;1.60;;;11.10;99.90;;;;;;1055003;28;20072;-66
2022/04/05 00:51:39;;;;;;;2.83;1.80;;;11.10;99.90;;;;;;1055405;28;20020;-66
2022/04/05 00:52:14;;;;;;;2.90;1.93;;;11.10;99.90;;;;;;1056104;28;20015;-66
2022/04/05 00:52:44;;;;;;;2.40;1.75;;;11.10;99.90;;;;;;1051355;28;20013;-66
2022/04/05 00:53:15;;;;;;;2.55;1.80;;;11.10;99.90;;;;;;1052102;28;20020;-66
2022/04/05 00:53:48;;;;;;;2.20;1.80;;;11.10;99.90;;;;;;1055683;28;20053;-66
2022/04/05 00:54:21;;;;;;;2.63;1.77;;;11.10;99.90;;;;;;1055605;28;20041;-66
2022/04/05 00:54:52;;;;;;;3.20;2.10;;;11.10;99.90;;;;;;1056144;28;20370;-65
2022/04/05 00:55:24;;;;;;;1.83;1.40;;;11.10;99.90;;;;;;1055907;28;20008;-65
2022/04/05 00:55:57;;;;;;;2.85;1.60;;;11.10;99.90;;;;;;1056046;28;20375;-66
2022/04/05 00:56:28;;;;;;;1.88;1.70;;;11.10;99.90;;;;;;1055895;28;20019;-66
2022/04/05 00:56:59;;;;;;;3.00;1.92;;;11.10;99.90;;;;;;1056071;28;20014;-65
2022/04/05 00:57:31;;;;;;;3.60;1.90;;;11.10;99.90;;;;;;1056119;28;20022;-65
2022/04/05 00:58:03;;;;;;;3.42;1.65;;;11.10;99.90;;;;;;1055628;28;20023;-66
2022/04/05 00:58:35;;;;;;;2.60;1.70;;;11.10;99.90;;;;;;1053233;28;20019;-65
2022/04/05 00:59:07;;;;;;;2.47;1.48;;;11.10;99.90;;;;;;1047352;28;20012;-65
2022/04/05 00:59:42;;;;;;;2.70;1.70;;;11.10;99.90;;;;;;1047766;28;20083;-67
2022/04/05 01:00:14;;;;;;;1.92;1.55;;;11.10;99.90;;;;;;1051421;28;20458;-66
2022/04/05 01:00:47;;;;;;;2.20;1.50;;;11.10;99.90;;;;;;1048096;28;20399;-66
2022/04/05 01:01:20;;;;;;;2.30;1.80;;;11.10;99.90;;;;;;1051472;28;20024;-66
2022/04/05 01:01:54;;;;;;;3.15;1.60;;;11.10;99.90;;;;;;1047044;28;20137;-66
2022/04/05 01:02:28;;;;;;;3.10;1.88;;;11.10;99.90;;;;;;1048646;28;20092;-66
2022/04/05 01:02:59;;;;;;;3.00;1.88;;;11.10;99.90;;;;;;1051274;28;20004;-66
2022/04/05 01:03:32;;;;;;;3.00;1.77;;;11.10;99.90;;;;;;1052588;28;20066;-66
2022/04/05 01:04:03;;;;;;;1.73;1.33;;;11.10;99.90;;;;;;1051157;28;20020;-66
2022/04/05 01:04:35;;;;;;;2.05;1.52;;;11.10;99.90;;;;;;1051056;28;20023;-66
2022/04/05 01:05:07;;;;;;;2.78;1.75;;;11.10;99.90;;;;;;1051538;28;20035;-66
2022/04/05 01:05:39;;;;;;;1.65;1.33;;;11.10;99.90;;;;;;1051143;28;20020;-66
2022/04/05 01:06:10;;;;;;;2.80;1.60;;;11.00;99.90;;;;;;1046779;28;20488;-66
2022/04/05 01:06:45;;;;;;;2.75;1.45;;;11.00;99.90;;;;;;1038898;28;20018;-66
2022/04/05 01:07:18;;;;;;;4.32;1.92;;;11.10;99.90;;;;;;1035671;28;20456;-66
2022/04/05 01:07:51;;;;;;;1.90;1.50;;;11.00;99.90;;;;;;1040314;28;20376;-66
2022/04/05 01:08:24;;;;;;;2.97;1.58;;;11.00;99.90;;;;;;1045690;28;20102;-66
2022/04/05 01:08:56;;;;;;;4.25;1.60;;;11.00;99.90;;;;;;1052660;28;20008;-66
2022/04/05 01:09:27;;;;;;;1.95;1.30;;;11.00;99.90;;;;;;1050872;28;20020;-66
2022/04/05 01:09:59;;;;;;;1.80;1.38;;;11.00;99.90;;;;;;1051627;28;20016;-68
2022/04/05 01:10:29;;;;;;;2.22;1.75;;;11.00;99.90;;;;;;1051306;28;20017;-66
2022/04/05 01:11:01;;;;;;;2.67;1.57;;;11.00;99.90;;;;;;1052029;28;20036;-66
2022/04/05 01:11:33;;;;;;;2.45;1.85;;;11.00;99.90;;;;;;1050949;28;20446;-66
2022/04/05 01:12:06;;;;;;;2.33;1.65;;;11.00;99.90;;;;;;1051800;28;20103;-66
2022/04/05 01:12:37;;;;;;;2.20;1.67;;;11.00;99.90;;;;;;1051273;28;20069;-66
2022/04/05 01:13:08;;;;;;;3.22;1.38;;;11.00;99.90;;;;;;1052515;28;20016;-66
2022/04/05 01:13:39;;;;;;;1.63;1.17;;;11.00;99.90;;;;;;1055694;28;20016;-66
2022/04/05 01:14:10;;;;;;;2.35;1.55;;;11.00;99.90;;;;;;1055632;28;20039;-66
2022/04/05 01:14:42;;;;;;;2.40;1.60;;;11.00;99.90;;;;;;1051082;28;20107;-66
2022/04/05 01:15:13;;;;;;;1.77;1.52;;;11.00;99.90;;;;;;1051610;28;20541;-66
2022/04/05 01:15:44;;;;;;;2.13;1.43;;;11.00;99.90;;;;;;1046933;28;20562;-66
2022/04/05 01:16:14;;;;;;;1.63;1.53;;;11.00;99.90;;;;;;1047877;28;20013;-66
2022/04/05 01:16:45;;;;;;;2.97;1.47;;;11.00;99.90;;;;;;1051256;28;20243;-66
2022/04/05 01:17:16;;;;;;;3.10;1.73;;;11.00;99.90;;;;;;1051689;28;20027;-66
2022/04/05 01:17:46;;;;;;;1.90;1.43;;;11.00;99.90;;;;;;1055768;28;20421;-66
2022/04/05 01:18:17;;;;;;;3.50;1.57;;;11.00;99.90;;;;;;1056079;28;20020;-66
2022/04/05 01:18:48;;;;;;;2.00;1.37;;;11.00;99.90;;;;;;1051199;28;20016;-66
2022/04/05 01:19:19;;;;;;;2.88;1.63;;;11.00;99.90;;;;;;1047308;28;20013;-66
2022/04/05 01:19:52;;;;;;;1.55;1.10;;;11.00;99.90;;;;;;1047275;28;20028;-66
2022/04/05 01:20:23;;;;;;;2.33;1.10;;;11.00;99.90;;;;;;1048017;28;20110;-66
2022/04/05 01:20:53;;;;;;;2.45;1.20;;;11.00;99.90;;;;;;1051673;28;20065;-66
2022/04/05 01:21:24;;;;;;;2.17;1.30;;;11.00;99.90;;;;;;1056634;28;20068;-66
2022/04/05 01:21:55;;;;;;;2.95;1.48;;;11.00;99.90;;;;;;1056427;28;20465;-66
2022/04/05 01:22:26;;;;;;;2.23;1.37;;;11.00;99.90;;;;;;1056841;28;20393;-66
2022/04/05 01:22:57;;;;;;;2.17;1.30;;;11.00;99.90;;;;;;1056656;28;20465;-66
2022/04/05 01:23:28;;;;;;;1.58;1.20;;;11.00;99.90;;;;;;1056605;28;20053;-66
2022/04/05 01:24:12;;;;;;;2.20;1.35;;;10.90;99.90;;;;;;1056514;28;20019;-65
2022/04/05 01:24:43;;;;;;;4.85;1.85;;;10.90;99.90;;;;;;1055283;28;20114;-66
2022/04/05 01:25:18;;;;;;;2.07;1.30;;;11.00;99.90;;;;;;1052459;28;20412;-66
2022/04/05 01:25:51;;;;;;;2.50;1.50;;;10.90;99.90;;;;;;1047947;28;20107;-66
2022/04/05 01:26:21;;;;;;;2.67;1.42;;;10.90;99.90;;;;;;1048153;28;20242;-66
2022/04/05 01:26:54;;;;;;;2.50;1.20;;;10.90;99.90;;;;;;1043809;28;20171;-66
2022/04/05 01:27:27;;;;;;;1.92;1.30;;;10.90;99.90;;;;;;1044644;28;20092;-66
2022/04/05 01:27:58;;;;;;;1.85;1.20;;;10.90;99.90;;;;;;1047842;28;20036;-66
2022/04/05 01:28:28;;;;;;;2.17;1.33;;;10.90;99.90;;;;;;1048136;28;20124;-66
2022/04/05 01:28:59;;;;;;;2.60;1.40;;;10.90;99.90;;;;;;1047988;28;20095;-66
2022/04/05 01:29:31;;;;;;;1.93;1.20;;;10.90;99.90;;;;;;1050940;28;20590;-66
2022/04/05 01:30:01;;;;;;;2.08;1.33;;;11.00;99.90;;;;;;1056892;28;20031;-66
2022/04/05 01:30:32;;;;;;;1.63;1.20;;;10.90;99.90;;;;;;1056408;28;20026;-66
2022/04/05 01:31:02;;;;;;;2.50;1.10;;;11.00;99.90;;;;;;1056968;28;20043;-66
2022/04/05 01:31:43;;;;;;;1.93;1.27;;;11.00;99.90;;;;;;1056286;28;20519;-66
2022/04/05 01:32:14;;;;;;;1.77;1.10;;;11.00;99.90;;;;;;1056609;28;20025;-66
2022/04/05 01:32:45;;;;;;;1.10;1.00;;;11.00;99.90;;;;;;1056672;28;20011;-66
2022/04/05 01:33:16;;;;;;;1.92;1.40;;;11.00;99.90;;;;;;1056549;28;20057;-66
2022/04/05 01:33:46;;;;;;;2.73;1.40;;;11.00;99.90;;;;;;1052081;28;20012;-66
2022/04/05 01:34:22;;;;;;;1.40;1.20;;;11.00;99.90;;;;;;1052123;28;20398;-66
2022/04/05 01:34:54;;;;;;;1.73;1.23;;;11.00;99.90;;;;;;1051980;28;20059;-65
2022/04/05 01:35:25;;;;;;;1.63;1.25;;;11.00;99.90;;;;;;1048760;28;20016;-66
2022/04/05 01:35:55;;;;;;;1.87;1.40;;;11.00;99.90;;;;;;1052172;28;20569;-65
2022/04/05 01:36:26;;;;;;;1.50;1.20;;;11.00;99.90;;;;;;1052118;28;20017;-65
2022/04/05 01:36:59;;;;;;;1.87;1.27;;;10.90;99.90;;;;;;1052067;28;20012;-66
2022/04/05 01:37:30;;;;;;;2.83;1.38;;;10.90;99.90;;;;;;1056644;28;20389;-66
2022/04/05 01:38:04;;;;;;;2.75;1.30;;;11.00;99.90;;;;;;1052027;28;20403;-66
2022/04/05 01:38:35;;;;;;;1.33;1.23;;;10.90;99.90;;;;;;1051982;28;20023;-66
2022/04/05 01:39:06;;;;;;;1.40;1.05;;;10.90;99.90;;;;;;1052301;28;20004;-66
2022/04/05 01:39:39;;;;;;;3.17;1.20;;;10.90;99.90;;;;;;1052508;28;20374;-66
2022/04/05 01:40:10;;;;;;;1.48;1.10;;;10.90;99.90;;;;;;1052195;28;20043;-66
2022/04/05 01:40:40;;;;;;;2.63;1.10;;;10.90;99.90;;;;;;1051941;28;20020;-66
2022/04/05 01:41:11;;;;;;;1.40;1.30;;;11.00;99.90;;;;;;1052281;28;20050;-66
2022/04/05 01:41:41;;;;;;;4.63;1.20;;;10.90;99.90;;;;;;1052322;28;20518;-66
2022/04/05 01:42:14;;;;;;;1.63;1.10;;;11.00;99.90;;;;;;1051974;28;20114;-67
2022/04/05 01:42:44;;;;;;;2.20;1.20;;;10.90;99.90;;;;;;1051856;28;20016;-66
2022/04/05 01:43:15;;;;;;;2.10;0.97;;;10.90;99.90;;;;;;1052012;28;20067;-66
2022/04/05 01:43:45;;;;;;;1.00;0.90;;;10.90;99.90;;;;;;1052335;28;20012;-66
2022/04/05 01:44:16;;;;;;;1.17;1.07;;;10.90;99.90;;;;;;1056484;28;20035;-66
2022/04/05 01:44:47;;;;;;;1.42;0.90;;;10.90;99.90;;;;;;1056552;28;20008;-66
2022/04/05 01:45:17;;;;;;;1.70;1.20;;;10.90;99.90;;;;;;1056706;28;20027;-66
2022/04/05 01:45:48;;;;;;;1.20;0.93;;;10.90;99.90;;;;;;1056726;28;20019;-66
2022/04/05 01:46:18;;;;;;;2.70;1.43;;;10.90;99.90;;;;;;1052042;28;20497;-65
2022/04/05 01:46:49;;;;;;;3.27;1.73;;;10.90;99.90;;;;;;1052103;28;20023;-66
2022/04/05 01:47:20;;;;;;;3.93;1.20;;;10.90;99.90;;;;;;1053257;28;20076;-66
2022/04/05 01:47:51;;;;;;;4.80;1.33;;;10.90;99.90;;;;;;1052427;28;20017;-66
2022/04/05 01:48:22;;;;;;;1.73;1.38;;;10.90;99.90;;;;;;1056274;28;20016;-66
2022/04/05 01:48:53;;;;;;;3.27;1.50;;;10.90;99.90;;;;;;1052126;28;20036;-66
2022/04/05 01:49:23;;;;;;;2.42;1.40;;;10.90;99.90;;;;;;1048018;28;20013;-67
2022/04/05 01:49:54;;;;;;;1.80;1.23;;;10.90;99.90;;;;;;1052175;28;20585;-66
2022/04/05 01:50:25;;;;;;;1.53;0.97;;;10.90;99.90;;;;;;1052295;28;20087;-66
2022/04/05 01:50:56;;;;;;;2.13;1.30;;;10.90;99.90;;;;;;1055133;28;20027;-66
2022/04/05 01:51:27;;;;;;;2.03;1.20;;;10.90;99.90;;;;;;1052030;28;20008;-66
2022/04/05 01:51:57;;;;;;;2.05;1.05;;;10.90;99.90;;;;;;1052150;28;20013;-66
2022/04/05 01:52:28;;;;;;;1.80;1.20;;;10.90;99.90;;;;;;1051964;28;20073;-65
2022/04/05 01:52:59;;;;;;;1.97;1.10;;;10.90;99.90;;;;;;1052401;28;20043;-66
2022/04/05 01:53:29;;;;;;;2.28;1.25;;;10.90;99.90;;;;;;1056488;28;20806;-68
2022/04/05 01:54:02;;;;;;;1.20;0.90;;;10.90;99.90;;;;;;1056832;28;20511;-66
2022/04/05 01:54:33;;;;;;;2.00;1.00;;;10.90;99.90;;;;;;1056372;28;20012;-66
2022/04/05 01:55:07;;;;;;;1.30;1.10;;;10.90;99.90;;;;;;1052186;28;20051;-65
2022/04/05 01:55:38;;;;;;;1.65;1.13;;;10.80;99.90;;;;;;1051875;28;20062;-66
2022/04/05 01:56:09;;;;;;;1.10;1.00;;;10.80;99.90;;;;;;1052247;28;20195;-66
2022/04/05 01:56:44;;;;;;;1.57;1.03;;;10.80;99.90;;;;;;1051851;28;20023;-65
2022/04/05 01:57:15;;;;;;;2.38;1.23;;;10.80;99.90;;;;;;1052326;28;20012;-66
2022/04/05 01:57:46;;;;;;;1.45;0.90;;;10.80;99.90;;;;;;1047574;28;20013;-66
2022/04/05 01:58:16;;;;;;;1.60;1.10;;;10.80;99.90;;;;;;1048990;28;20023;-65
2022/04/05 01:58:49;;;;;;;2.13;1.10;;;10.80;99.90;;;;;;1056233;28;20012;-65
2022/04/05 01:59:23;;;;;;;1.20;1.10;;;10.80;99.90;;;;;;1056779;28;20471;-66
2022/04/05 01:59:53;;;;;;;2.47;1.17;;;10.80;99.90;;;;;;1056483;28;20354;-67
2022/04/05 02:00:24;;;;;;;2.50;1.20;;;10.80;99.90;;;;;;1056729;28;20369;-67
2022/04/05 02:00:54;;;;;;;1.00;0.90;;;10.80;99.90;;;;;;1056197;28;20488;-65
2022/04/05 02:01:25;;;;;;;1.33;0.93;;;10.80;99.90;;;;;;1056724;28;20015;-66
2022/04/05 02:01:56;;;;;;;1.27;1.07;;;10.80;99.90;;;;;;1056493;28;20016;-65
2022/04/05 02:02:27;;;;;;;1.70;0.98;;;10.80;99.90;;;;;;1056351;28;20043;-65
2022/04/05 02:02:57;;;;;;;2.40;1.40;;;10.80;99.90;;;;;;1052961;28;20004;-65
2022/04/05 02:03:28;;;;;;;1.73;1.17;;;10.80;99.90;;;;;;1047932;28;20097;-65
2022/04/05 02:03:59;;;;;;;2.42;1.10;;;10.80;99.90;;;;;;1043409;28;20005;-67
2022/04/05 02:04:30;;;;;;;2.00;1.23;;;10.80;99.90;;;;;;1041969;28;20010;-67
2022/04/05 02:05:00;;;;;;;1.07;0.93;;;10.80;99.90;;;;;;1039628;28;20067;-66
2022/04/05 02:05:31;;;;;;;2.93;1.10;;;10.80;99.90;;;;;;1039681;28;20017;-66
2022/04/05 02:06:02;;;;;;;3.63;1.57;;;10.80;99.90;;;;;;1043654;28;20009;-65
2022/04/05 02:06:32;;;;;;;1.70;1.10;;;10.80;99.90;;;;;;1047949;28;20545;-66
2022/04/05 02:07:14;;;;;;;1.57;1.37;;;10.80;99.90;;;;;;1052370;28;20114;-65
2022/04/05 02:07:45;;;;;;;2.95;1.42;;;10.80;99.90;;;;;;1056734;28;20038;-66
2022/04/05 02:08:17;;;;;;;2.87;1.20;;;10.80;99.90;;;;;;1051847;28;20018;-66
2022/04/05 02:08:48;;;;;;;1.90;1.00;;;10.80;99.90;;;;;;1047826;28;20547;-66
2022/04/05 02:09:19;;;;;;;2.15;1.10;;;10.80;99.90;;;;;;1047376;28;20527;-66
2022/04/05 02:09:50;;;;;;;1.00;0.85;;;10.80;99.90;;;;;;1048544;28;20019;-66
2022/04/05 02:10:21;;;;;;;0.80;0.70;;;10.80;99.90;;;;;;1051720;28;20015;-66
2022/04/05 02:10:51;;;;;;;2.77;1.17;;;10.80;99.90;;;;;;1052147;28;20012;-66
2022/04/05 02:11:25;;;;;;;1.60;1.07;;;10.80;99.90;;;;;;1051524;28;20070;-66
2022/04/05 02:11:56;;;;;;;1.38;1.00;;;10.80;99.90;;;;;;1051919;28;20079;-66
2022/04/05 02:12:26;;;;;;;1.10;0.97;;;10.80;99.90;;;;;;1051970;28;20005;-66
2022/04/05 02:12:57;;;;;;;1.17;0.97;;;10.80;99.90;;;;;;1052393;28;20079;-66
2022/04/05 02:13:27;;;;;;;1.70;0.93;;;10.80;99.90;;;;;;1056383;28;20072;-65
2022/04/05 02:13:58;;;;;;;1.70;1.03;;;10.80;99.90;;;;;;1051827;28;20071;-66
2022/04/05 02:14:29;;;;;;;2.07;1.03;;;10.80;99.90;;;;;;1052020;28;20008;-67
2022/04/05 02:15:00;;;;;;;2.03;1.10;;;10.80;99.90;;;;;;1047920;28;20044;-66
2022/04/05 02:15:31;;;;;;;2.50;1.10;;;10.80;99.90;;;;;;1047922;28;20011;-66
2022/04/05 02:16:03;;;;;;;1.73;1.13;;;10.80;99.90;;;;;;1052121;28;20093;-66
2022/04/05 02:16:34;;;;;;;1.10;0.90;;;10.80;99.90;;;;;;1052293;28;20015;-66
2022/04/05 02:17:05;;;;;;;0.80;0.80;;;10.80;99.90;;;;;;1055702;28;20004;-67
2022/04/05 02:17:36;;;;;;;2.85;1.10;;;10.80;99.90;;;;;;1052116;28;20471;-65
2022/04/05 02:18:07;;;;;;;1.65;0.88;;;10.80;99.90;;;;;;1052400;28;20501;-65
2022/04/05 02:18:37;;;;;;;1.00;0.90;;;10.80;99.90;;;;;;1052200;28;20016;-66
2022/04/05 02:19:09;;;;;;;2.40;1.10;;;10.80;99.90;;;;;;1052342;28;20591;-65
2022/04/05 02:19:40;;;;;;;2.65;1.10;;;10.80;99.90;;;;;;1052240;28;20016;-65
2022/04/05 02:20:13;;;;;;;1.77;0.88;;;10.80;99.90;;;;;;1052465;28;20012;-65
2022/04/05 02:20:44;;;;;;;2.40;0.98;;;10.80;99.90;;;;;;1051861;28;20386;-66
2022/04/05 02:21:15;;;;;;;0.90;0.80;;;10.80;99.90;;;;;;1047914;28;20203;-66
2022/04/05 02:21:45;;;;;;;1.37;0.90;;;10.80;99.90;;;;;;1047664;28;20063;-65
2022/04/05 02:22:16;;;;;;;1.53;0.93;;;10.80;99.90;;;;;;1047782;28;20016;-66
2022/04/05 02:22:47;;;;;;;1.20;1.00;;;10.80;99.90;;;;;;1047906;28;20020;-67
2022/04/05 02:23:17;;;;;;;2.03;1.17;;;10.80;99.90;;;;;;1053841;28;20008;-66
2022/04/05 02:23:48;;;;;;;1.63;1.43;;;10.80;99.90;;;;;;1056464;28;20007;-66
2022/04/05 02:24:18;;;;;;;1.23;0.83;;;10.80;99.90;;;;;;1056484;28;20019;-66
2022/04/05 02:24:49;;;;;;;1.60;0.90;;;10.80;99.90;;;;;;1056227;28;20034;-66
2022/04/05 02:25:20;;;;;;;1.30;0.90;;;10.80;99.90;;;;;;1056635;28;20036;-66
2022/04/05 02:25:50;;;;;;;2.77;1.00;;;10.80;99.90;;;;;;1056396;28;20008;-65
2022/04/05 02:26:21;;;;;;;1.20;0.93;;;10.80;99.90;;;;;;1051824;28;20019;-67
2022/04/05 02:26:55;;;;;;;2.08;1.10;;;10.80;99.90;;;;;;1051708;28;20363;-66
2022/04/05 02:27:25;;;;;;;2.17;1.20;;;10.80;99.90;;;;;;1051752;28;20004;-66
2022/04/05 02:27:56;;;;;;;2.97;1.13;;;10.80;99.90;;;;;;1052452;28;20087;-66
2022/04/05 02:28:26;;;;;;;1.77;0.80;;;10.80;99.90;;;;;;1056511;28;20355;-67
2022/04/05 02:28:57;;;;;;;1.67;0.90;;;10.80;99.90;;;;;;1056298;28;20474;-66
2022/04/05 02:29:28;;;;;;;1.77;1.17;;;10.80;99.90;;;;;;1056404;28;20011;-66
2022/04/05 02:29:59;;;;;;;1.10;1.00;;;10.80;99.90;;;;;;1051893;28;20019;-67
2022/04/05 02:30:29;;;;;;;1.20;1.00;;;10.80;99.90;;;;;;1052068;28;20021;-66
2022/04/05 02:31:00;;;;;;;2.37;1.20;;;10.80;99.90;;;;;;1051866;28;20004;-66
2022/04/05 02:31:30;;;;;;;1.58;0.95;;;10.80;99.90;;;;;;1052025;28;20020;-66
2022/04/05 02:32:01;;;;;;;2.20;1.27;;;10.80;99.90;;;;;;1056331;28;20011;-67
2022/04/05 02:32:32;;;;;;;1.27;0.90;;;10.80;99.90;;;;;;1056261;28;20107;-66
2022/04/05 02:33:03;;;;;;;2.67;1.30;;;10.80;99.90;;;;;;1056794;28;20257;-66
2022/04/05 02:33:33;;;;;;;2.23;1.20;;;10.80;99.90;;;;;;1056312;28;20020;-66
2022/04/05 02:34:04;;;;;;;1.80;0.90;;;10.80;99.90;;;;;;1056650;28;20016;-66
2022/04/05 02:34:34;;;;;;;1.33;0.77;;;10.80;99.90;;;;;;1056201;28;20016;-66
2022/04/05 02:35:05;;;;;;;1.40;1.00;;;10.80;99.90;;;;;;1056797;28;20007;-66
2022/04/05 02:35:37;;;;;;;0.88;0.88;;;10.70;99.90;;;;;;1051606;28;20106;-67
2022/04/05 02:36:08;;;;;;;1.65;0.90;;;10.80;99.90;;;;;;1047881;28;20013;-66
2022/04/05 02:36:39;;;;;;;1.70;0.80;;;10.80;99.90;;;;;;1047493;28;20042;-66
2022/04/05 02:37:09;;;;;;;3.17;1.43;;;10.70;99.90;;;;;;1048297;28;20008;-66
2022/04/05 02:37:40;;;;;;;1.13;0.73;;;10.70;99.90;;;;;;1051752;28;20069;-66
2022/04/05 02:38:11;;;;;;;0.87;0.87;;;10.70;99.90;;;;;;1056723;28;20016;-66
2022/04/05 02:38:41;;;;;;;1.47;1.03;;;10.80;99.90;;;;;;1056339;28;20363;-66
2022/04/05 02:39:12;;;;;;;1.43;1.10;;;10.70;99.90;;;;;;1056482;28;20610;-66
2022/04/05 02:39:43;;;;;;;1.10;0.90;;;10.70;99.90;;;;;;1056112;28;20004;-66
2022/04/05 02:40:13;;;;;;;1.23;0.97;;;10.80;99.90;;;;;;1056440;28;20023;-66
2022/04/05 02:40:44;;;;;;;2.10;1.10;;;10.80;99.90;;;;;;1056475;28;20576;-66
2022/04/05 02:41:14;;;;;;;1.63;0.90;;;10.70;99.90;;;;;;1056554;28;20451;-66
2022/04/05 02:41:45;;;;;;;1.50;0.83;;;10.70;99.90;;;;;;1056276;28;20024;-66
2022/04/05 02:42:15;;;;;;;3.20;1.20;;;10.70;99.90;;;;;;1056399;28;20099;-66
2022/04/05 02:42:46;;;;;;;2.77;1.10;;;10.70;99.90;;;;;;1056297;28;20019;-66
2022/04/05 02:43:17;;;;;;;1.13;0.90;;;10.70;99.90;;;;;;1051754;28;20647;-66